Time;durP1;ratioP1;P1;durP2;ratioP2;P2;SDS_P1;SDS_P2;PMS_P1;PMS_P2;Temp;Humidity;BMP_temperature;BMP_pressure;BME280_temperature;BME280_humidity;BME280_pressure;Samples;Min_cycle;Max_cycle;Signal;HPM_P1;HPM_P2
2022/08/15 00:01:11;;;;;;;;;;;20.40;99.90;;;;;;5016494;28;19909;-76
2022/08/15 00:03:38;;;;;;;;;;;20.40;99.90;;;;;;5016108;28;19905;-76
2022/08/15 00:06:06;;;;;;;;;;;20.40;99.90;;;;;;5016481;28;20433;-77
2022/08/15 00:08:35;;;;;;;;;;;20.40;99.90;;;;;;5015526;28;19909;-76
2022/08/15 00:11:04;;;;;;;;;;;20.40;99.90;;;;;;5015633;28;20274;-74
2022/08/15 00:13:30;;;;;;;;;;;20.40;99.90;;;;;;5015450;28;19909;-76
2022/08/15 00:15:56;;;;;;;;;;;20.30;99.90;;;;;;5016211;28;19913;-76
2022/08/15 00:18:24;;;;;;;;;;;20.30;99.90;;;;;;5015482;28;19913;-77
2022/08/15 00:20:50;;;;;;;;;;;20.30;99.90;;;;;;5017672;28;19905;-74
2022/08/15 00:23:19;;;;;;;;;;;20.30;99.90;;;;;;5015414;28;20336;-77
2022/08/15 00:25:46;;;;;;;;;;;20.30;99.90;;;;;;5014441;28;19960;-74
2022/08/15 00:28:11;;;;;;;;;;;20.30;99.90;;;;;;5015365;28;20292;-74
2022/08/15 00:30:38;;;;;;;;;;;20.30;99.90;;;;;;5015533;28;19910;-76
2022/08/15 00:33:04;;;;;;;;;;;20.20;99.90;;;;;;5015668;28;19913;-74
2022/08/15 00:35:36;;;;;;;;;;;20.20;99.90;;;;;;5017536;28;19927;-74
2022/08/15 00:38:05;;;;;;;;;;;20.10;99.90;;;;;;5018256;28;19906;-74
2022/08/15 00:41:39;;;;;;;;;;;20.20;99.90;;;;;;5015249;28;20297;-74
2022/08/15 00:43:18;;;;;;;;;;;20.10;99.90;;;;;;5005992;28;19945;-77
2022/08/15 00:45:43;;;;;;;;;;;20.10;99.90;;;;;;5015025;28;19912;-76
2022/08/15 00:50:53;;;;;;;;;;;20.00;99.90;;;;;;5014909;28;20005;-74
2022/08/15 00:53:19;;;;;;;;;;;20.00;99.90;;;;;;5015094;28;20008;-74
2022/08/15 00:55:46;;;;;;;;;;;20.10;99.90;;;;;;5015076;28;19905;-75
2022/08/15 00:58:11;;;;;;;;;;;20.10;99.90;;;;;;5014812;28;19906;-75
2022/08/15 01:00:41;;;;;;;;;;;20.10;99.90;;;;;;5014957;28;20407;-76
2022/08/15 01:03:10;;;;;;;;;;;20.10;99.90;;;;;;5015040;28;19905;-74
2022/08/15 01:05:36;;;;;;;;;;;20.10;99.90;;;;;;5015091;28;19905;-74
2022/08/15 01:08:01;;;;;;;;;;;20.10;99.90;;;;;;5015150;28;19912;-74
2022/08/15 01:10:27;;;;;;;;;;;20.10;99.90;;;;;;5013791;28;19967;-74
2022/08/15 01:12:52;;;;;;;;;;;20.10;99.90;;;;;;5014263;28;19916;-76
2022/08/15 01:15:18;;;;;;;;;;;20.00;99.90;;;;;;5014804;28;20292;-74
2022/08/15 01:17:44;;;;;;;;;;;20.10;99.90;;;;;;5013644;28;20577;-74
2022/08/15 01:20:12;;;;;;;;;;;20.10;99.90;;;;;;5015768;28;19912;-77
2022/08/15 01:22:57;;;;;;;;;;;20.10;99.90;;;;;;5014411;28;19952;-74
2022/08/15 01:25:28;;;;;;;;;;;20.10;99.90;;;;;;5014570;28;19905;-76
2022/08/15 01:27:53;;;;;;;;;;;20.10;99.90;;;;;;5014206;28;20353;-74
2022/08/15 01:30:20;;;;;;;;;;;20.10;99.90;;;;;;5014676;28;19915;-77
2022/08/15 01:32:46;;;;;;;;;;;20.10;99.90;;;;;;5014352;28;19999;-73
2022/08/15 01:35:12;;;;;;;;;;;20.00;99.90;;;;;;5016683;28;20346;-77
2022/08/15 01:37:39;;;;;;;;;;;20.00;99.90;;;;;;5014259;28;20008;-76
2022/08/15 01:40:19;;;;;;;;;;;20.00;99.90;;;;;;5006352;28;19914;-77
2022/08/15 01:42:48;;;;;;;;;;;20.00;99.90;;;;;;5001014;28;20388;-74
2022/08/15 01:45:21;;;;;;;;;;;20.00;99.90;;;;;;5014402;28;19948;-73
2022/08/15 01:47:49;;;;;;;;;;;20.00;99.90;;;;;;5016624;28;19912;-76
2022/08/15 01:50:15;;;;;;;;;;;20.00;99.90;;;;;;5014227;28;19910;-77
2022/08/15 01:52:40;;;;;;;;;;;20.00;99.90;;;;;;5014073;28;19944;-77
2022/08/15 01:55:07;;;;;;;;;;;20.00;99.90;;;;;;5013704;28;19944;-74
2022/08/15 01:57:33;;;;;;;;;;;20.00;99.90;;;;;;5013281;28;19995;-74
2022/08/15 01:59:59;;;;;;;;;;;20.00;99.90;;;;;;5014083;28;20403;-74
2022/08/15 02:02:25;;;;;;;;;;;19.90;99.90;;;;;;5014071;28;19906;-76
2022/08/15 02:04:50;;;;;;;;;;;19.90;99.90;;;;;;5014103;28;19913;-76
2022/08/15 02:07:18;;;;;;;;;;;19.80;99.90;;;;;;5013963;28;19906;-77
2022/08/15 02:09:47;;;;;;;;;;;19.80;99.90;;;;;;5013381;28;19910;-74
2022/08/15 02:12:14;;;;;;;;;;;19.70;99.90;;;;;;5012698;28;19906;-77
2022/08/15 02:14:41;;;;;;;;;;;19.70;99.90;;;;;;5013804;28;19905;-76
2022/08/15 02:17:08;;;;;;;;;;;19.70;99.90;;;;;;5013887;28;19913;-76
2022/08/15 02:19:34;;;;;;;;;;;19.70;99.90;;;;;;5013881;28;19906;-77
2022/08/15 02:22:00;;;;;;;;;;;19.70;99.90;;;;;;5013590;28;19906;-74
2022/08/15 02:24:25;;;;;;;;;;;19.70;99.90;;;;;;5013365;28;19905;-73
2022/08/15 02:26:52;;;;;;;;;;;19.60;99.90;;;;;;5013667;28;19972;-76
2022/08/15 02:29:22;;;;;;;;;;;19.60;99.90;;;;;;5013169;28;19905;-76
2022/08/15 02:31:48;;;;;;;;;;;19.60;99.90;;;;;;5013778;28;19905;-77
2022/08/15 02:34:14;;;;;;;;;;;19.60;99.90;;;;;;5013484;28;19909;-74
2022/08/15 02:36:40;;;;;;;;;;;19.60;99.90;;;;;;5015696;28;19996;-74
2022/08/15 02:39:07;;;;;;;;;;;19.70;99.90;;;;;;5013142;28;19955;-76
2022/08/15 02:41:35;;;;;;;;;;;19.60;99.90;;;;;;5001043;28;20353;-77
2022/08/15 02:44:01;;;;;;;;;;;19.70;99.90;;;;;;5011897;28;19909;-76
2022/08/15 02:46:29;;;;;;;;;;;19.60;99.90;;;;;;5013459;28;19905;-74
2022/08/15 02:48:55;;;;;;;;;;;19.60;99.90;;;;;;5013976;28;19905;-74
2022/08/15 02:51:22;;;;;;;;;;;19.60;99.90;;;;;;5013439;28;19920;-77
2022/08/15 02:53:49;;;;;;;;;;;19.60;99.90;;;;;;5013082;28;19910;-74
2022/08/15 02:56:16;;;;;;;;;;;19.60;99.90;;;;;;5013329;28;20022;-74
2022/08/15 02:58:42;;;;;;;;;;;19.60;99.90;;;;;;5013048;28;20336;-76
2022/08/15 03:01:11;;;;;;;;;;;19.60;99.90;;;;;;5013488;28;19994;-74
2022/08/15 03:03:38;;;;;;;;;;;19.50;99.90;;;;;;5013257;28;19912;-74
2022/08/15 03:06:04;;;;;;;;;;;19.50;99.90;;;;;;5013433;28;19945;-76
2022/08/15 03:08:29;;;;;;;;;;;19.60;99.90;;;;;;5016276;28;20415;-74
2022/08/15 03:10:56;;;;;;;;;;;19.50;99.90;;;;;;5016494;28;20016;-76
2022/08/15 03:13:22;;;;;;;;;;;19.60;99.90;;;;;;5015951;28;19909;-74
2022/08/15 03:15:56;;;;;;;;;;;19.50;99.90;;;;;;5017191;28;19967;-74
2022/08/15 03:18:23;;;;;;;;;;;19.50;99.90;;;;;;5017211;28;19909;-76
2022/08/15 03:20:51;;;;;;;;;;;19.50;99.90;;;;;;5018466;28;19991;-76
2022/08/15 03:23:20;;;;;;;;;;;19.50;99.90;;;;;;5016665;28;20384;-76
2022/08/15 03:25:48;;;;;;;;;;;19.50;99.90;;;;;;5016856;28;19913;-74
2022/08/15 03:28:15;;;;;;;;;;;19.50;99.90;;;;;;5016611;28;19905;-74
2022/08/15 03:30:41;;;;;;;;;;;19.50;99.90;;;;;;5016901;28;19959;-73
2022/08/15 03:33:07;;;;;;;;;;;19.50;99.90;;;;;;5016776;28;19913;-76
2022/08/15 03:35:38;;;;;;;;;;;19.50;99.90;;;;;;5018679;28;19995;-76
2022/08/15 03:38:03;;;;;;;;;;;19.40;99.90;;;;;;5016507;28;20004;-76
2022/08/15 03:40:29;;;;;;;;;;;19.50;99.90;;;;;;5016369;28;20341;-74
2022/08/15 03:43:00;;;;;;;;;;;19.40;99.90;;;;;;5007384;28;19905;-74
2022/08/15 03:45:26;;;;;;;;;;;19.40;99.90;;;;;;5016546;28;19912;-74
2022/08/15 03:47:52;;;;;;;;;;;19.40;99.90;;;;;;5018077;28;20399;-74
2022/08/15 03:50:18;;;;;;;;;;;19.40;99.90;;;;;;5016290;28;19956;-76
2022/08/15 03:52:51;;;;;;;;;;;19.40;99.90;;;;;;5016178;28;19925;-73
2022/08/15 03:55:17;;;;;;;;;;;19.40;99.90;;;;;;5016385;28;19911;-73
2022/08/15 03:57:44;;;;;;;;;;;19.30;99.90;;;;;;5015815;28;19905;-76
2022/08/15 04:00:11;;;;;;;;;;;19.30;99.90;;;;;;5016309;28;20335;-76
2022/08/15 04:02:37;;;;;;;;;;;19.30;99.90;;;;;;5016246;28;20383;-76
2022/08/15 04:05:02;;;;;;;;;;;19.30;99.90;;;;;;5015871;28;19909;-76
2022/08/15 04:07:29;;;;;;;;;;;19.30;99.90;;;;;;5015496;28;19909;-74
2022/08/15 04:09:54;;;;;;;;;;;19.30;99.90;;;;;;5015721;28;19916;-76
2022/08/15 04:12:30;;;;;;;;;;;19.30;99.90;;;;;;5014750;28;19909;-76
2022/08/15 04:14:55;;;;;;;;;;;19.30;99.90;;;;;;5016110;28;20003;-73
2022/08/15 04:17:21;;;;;;;;;;;19.30;99.90;;;;;;5015757;28;19975;-76
2022/08/15 04:19:47;;;;;;;;;;;19.20;99.90;;;;;;5015678;28;19931;-74
2022/08/15 04:22:13;;;;;;;;;;;19.20;99.90;;;;;;5015639;28;19967;-76
2022/08/15 04:24:38;;;;;;;;;;;19.20;99.90;;;;;;5017908;28;19905;-76
2022/08/15 04:27:04;;;;;;;;;;;19.20;99.90;;;;;;5025206;28;19910;-76
2022/08/15 04:29:29;;;;;;;;;;;19.20;99.90;;;;;;5015595;28;19906;-76
2022/08/15 04:31:56;;;;;;;;;;;19.20;99.90;;;;;;5015788;28;19909;-74
2022/08/15 04:34:22;;;;;;;;;;;19.10;99.90;;;;;;5015430;28;19988;-76
2022/08/15 04:36:47;;;;;;;;;;;19.10;99.90;;;;;;5017686;28;20047;-76
2022/08/15 04:39:13;;;;;;;;;;;19.10;99.90;;;;;;5015905;28;19916;-76
2022/08/15 04:41:38;;;;;;;;;;;19.10;99.90;;;;;;5008220;28;19913;-76
2022/08/15 04:44:04;;;;;;;;;;;19.10;99.90;;;;;;5012211;28;19999;-74
2022/08/15 04:46:30;;;;;;;;;;;19.10;99.90;;;;;;5015449;28;19906;-73
2022/08/15 04:48:56;;;;;;;;;;;19.00;99.90;;;;;;5017904;28;20383;-76
2022/08/15 04:51:21;;;;;;;;;;;19.00;99.90;;;;;;5015423;28;19919;-76
2022/08/15 04:53:47;;;;;;;;;;;19.00;99.90;;;;;;5013880;28;19909;-74
2022/08/15 04:56:12;;;;;;;;;;;19.00;99.90;;;;;;5013715;28;19913;-76
2022/08/15 04:58:38;;;;;;;;;;;19.00;99.90;;;;;;5014880;28;19913;-76
2022/08/15 05:01:12;;;;;;;;;;;19.10;99.90;;;;;;5015377;28;19906;-76
2022/08/15 05:03:38;;;;;;;;;;;19.00;99.90;;;;;;5014975;28;19921;-76
2022/08/15 05:06:05;;;;;;;;;;;19.10;99.90;;;;;;5015093;28;20015;-76
2022/08/15 05:08:33;;;;;;;;;;;19.10;99.90;;;;;;5025652;28;20011;-74
2022/08/15 05:11:12;;;;;;;;;;;19.10;99.90;;;;;;5014973;28;19963;-76
2022/08/15 05:13:38;;;;;;;;;;;19.10;99.90;;;;;;5013816;28;19996;-74
2022/08/15 05:16:07;;;;;;;;;;;19.00;99.90;;;;;;5014957;28;19906;-76
2022/08/15 05:18:34;;;;;;;;;;;19.00;99.90;;;;;;5014447;28;19912;-76
2022/08/15 05:21:00;;;;;;;;;;;19.00;99.90;;;;;;5015766;28;19912;-76
2022/08/15 05:23:25;;;;;;;;;;;19.10;99.90;;;;;;5024904;28;19905;-73
2022/08/15 05:25:57;;;;;;;;;;;19.00;99.90;;;;;;5014676;28;19932;-73
2022/08/15 05:28:23;;;;;;;;;;;19.00;99.90;;;;;;5014286;28;19913;-76
2022/08/15 05:30:49;;;;;;;;;;;19.00;99.90;;;;;;5014476;28;20288;-77
2022/08/15 05:33:20;;;;;;;;;;;19.10;99.90;;;;;;5014365;28;19905;-77
2022/08/15 05:35:46;;;;;;;;;;;19.10;99.90;;;;;;5016309;28;19905;-74
2022/08/15 05:38:38;;;;;;;;;;;19.10;99.90;;;;;;5014753;28;20287;-74
2022/08/15 05:41:16;;;;;;;;;;;19.10;99.90;;;;;;5004402;28;19909;-76
2022/08/15 05:43:42;;;;;;;;;;;19.10;99.90;;;;;;5009367;28;19905;-76
2022/08/15 05:46:39;;;;;;;;;;;19.20;99.90;;;;;;5014388;28;19905;-76
2022/08/15 05:49:23;;;;;;;;;;;19.20;99.90;;;;;;5005464;28;19944;-73
2022/08/15 05:51:51;;;;;;;;;;;19.30;99.90;;;;;;5014217;28;19924;-74
2022/08/15 05:54:24;;;;;;;;;;;19.30;99.90;;;;;;5014161;28;20432;-73
2022/08/15 05:56:49;;;;;;;;;;;19.30;99.90;;;;;;5013874;28;19925;-76
2022/08/15 05:59:16;;;;;;;;;;;19.40;99.90;;;;;;5013809;28;19909;-76
2022/08/15 06:01:50;;;;;;;;;;;19.40;99.90;;;;;;5014015;28;19916;-73
2022/08/15 06:04:35;;;;;;;;;;;19.40;99.90;;;;;;5017777;28;19920;-74
2022/08/15 06:07:05;;;;;;;;;;;19.50;99.90;;;;;;5014301;28;19917;-76
2022/08/15 06:09:36;;;;;;;;;;;19.60;99.90;;;;;;5013691;28;20280;-73
2022/08/15 06:12:04;;;;;;;;;;;19.70;99.90;;;;;;5013750;28;19913;-74
2022/08/15 06:14:31;;;;;;;;;;;19.70;99.90;;;;;;5012757;28;20288;-73
2022/08/15 06:17:00;;;;;;;;;;;19.80;99.90;;;;;;5013647;28;19909;-75
2022/08/15 06:19:27;;;;;;;;;;;19.80;99.90;;;;;;5014737;28;19912;-76
2022/08/15 06:22:16;;;;;;;;;;;19.90;99.90;;;;;;5013822;28;19913;-76
2022/08/15 06:25:04;;;;;;;;;;;20.00;99.90;;;;;;5013481;28;19909;-76
2022/08/15 06:27:33;;;;;;;;;;;20.10;99.90;;;;;;5010076;28;20253;-76
2022/08/15 06:30:02;;;;;;;;;;;20.10;99.90;;;;;;5013280;28;20008;-74
2022/08/15 06:32:46;;;;;;;;;;;20.10;99.90;;;;;;5013582;28;19913;-73
2022/08/15 06:35:13;;;;;;;;;;;20.00;99.90;;;;;;5015717;28;20407;-76
2022/08/15 06:38:18;;;;;;;;;;;20.00;99.90;;;;;;5013602;28;19913;-73
2022/08/15 06:40:44;;;;;;;;;;;20.00;99.90;;;;;;4968978;28;19914;-74
2022/08/15 06:43:11;;;;;;;;;;;20.10;99.90;;;;;;4962780;28;20361;-76
2022/08/15 06:45:38;;;;;;;;;;;20.10;99.90;;;;;;4972407;28;19938;-76
2022/08/15 06:48:08;;;;;;;;;;;20.20;99.90;;;;;;4974006;28;19913;-76
2022/08/15 06:50:37;;;;;;;;;;;20.20;99.90;;;;;;4972223;28;19910;-76
2022/08/15 06:53:05;;;;;;;;;;;20.30;99.90;;;;;;4972472;28;20348;-77
2022/08/15 06:55:37;;;;;;;;;;;20.40;99.90;;;;;;4972179;28;19906;-74
2022/08/15 06:58:10;;;;;;;;;;;20.40;99.90;;;;;;4977929;28;20388;-73
2022/08/15 07:00:39;;;;;;;;;;;20.60;99.90;;;;;;4972121;28;20417;-77
2022/08/15 07:03:14;;;;;;;;;;;20.60;99.90;;;;;;4972522;28;19906;-76
2022/08/15 07:05:45;;;;;;;;;;;20.70;99.90;;;;;;4972350;28;19907;-74
2022/08/15 07:08:29;;;;;;;;;;;20.80;99.90;;;;;;4972425;28;20429;-76
2022/08/15 07:11:15;;;;;;;;;;;20.90;99.90;;;;;;4978129;28;19953;-77
2022/08/15 07:13:59;;;;;;;;;;;21.10;99.90;;;;;;5012182;28;19911;-76
2022/08/15 07:16:46;;;;;;;;;;;21.00;99.90;;;;;;5010962;28;19905;-76
2022/08/15 07:19:12;;;;;;;;;;;21.10;99.90;;;;;;5013948;28;19909;-76
2022/08/15 07:21:38;;;;;;;;;;;21.10;99.90;;;;;;5012985;28;20288;-75
2022/08/15 07:24:15;;;;;;;;;;;21.30;99.90;;;;;;5012894;28;19905;-76
2022/08/15 07:26:54;;;;;;;;;;;21.20;99.90;;;;;;5013016;28;19910;-73
2022/08/15 07:29:28;;;;;;;;;;;21.20;99.90;;;;;;5011175;28;20292;-76
2022/08/15 07:32:01;;;;;;;;;;;21.40;99.90;;;;;;5013184;28;19905;-77
2022/08/15 07:34:29;;;;;;;;;;;21.30;99.90;;;;;;5012794;28;19920;-76
2022/08/15 07:37:03;;;;;;;;;;;21.10;99.90;;;;;;5015227;28;19939;-76
2022/08/15 07:39:35;;;;;;;;;;;20.90;99.90;;;;;;5013193;28;19952;-76
2022/08/15 07:42:15;;;;;;;;;;;20.90;99.90;;;;;;5009659;28;19909;-76
2022/08/15 07:44:48;;;;;;;;;;;21.10;99.90;;;;;;5013193;28;19956;-77
2022/08/15 07:47:19;;;;;;;;;;;21.50;99.90;;;;;;5014423;28;19927;-77
2022/08/15 07:49:58;;;;;;;;;;;21.60;99.90;;;;;;5012683;28;19909;-76
2022/08/15 07:52:24;;;;;;;;;;;21.80;99.90;;;;;;5012680;28;19967;-74
2022/08/15 07:54:52;;;;;;;;;;;21.70;99.90;;;;;;5014941;28;19905;-76
2022/08/15 07:57:24;;;;;;;;;;;21.90;99.90;;;;;;5015772;28;20284;-77
2022/08/15 08:00:09;;;;;;;;;;;22.10;99.90;;;;;;5015966;28;19906;-76
2022/08/15 08:02:40;;;;;;;;;;;22.90;99.90;;;;;;5016134;28;19905;-74
2022/08/15 08:05:06;;;;;;;;;;;24.50;99.90;;;;;;5016184;28;20369;-77
2022/08/15 08:07:35;;;;;;;;;;;25.60;99.90;;;;;;5016522;28;19913;-76
2022/08/15 08:10:03;;;;;;;;;;;25.80;99.90;;;;;;5015915;28;20280;-77
2022/08/15 08:12:37;;;;;;;;;;;26.50;99.90;;;;;;5015328;28;19912;-74
2022/08/15 08:15:12;;;;;;;;;;;27.00;99.90;;;;;;5015672;28;20292;-75
2022/08/15 08:17:44;;;;;;;;;;;27.00;99.90;;;;;;5015584;28;19906;-78
2022/08/15 08:20:15;;;;;;;;;;;27.00;99.90;;;;;;5016687;28;19905;-78
2022/08/15 08:22:49;;;;;;;;;;;27.10;99.90;;;;;;5015626;28;19913;-78
2022/08/15 08:25:14;;;;;;;;;;;27.60;99.90;;;;;;5016098;28;19906;-75
2022/08/15 08:27:40;;;;;;;;;;;27.00;99.90;;;;;;5015310;28;19927;-77
2022/08/15 08:30:19;;;;;;;;;;;27.40;99.90;;;;;;5014629;28;20402;-77
2022/08/15 08:33:05;;;;;;;;;;;25.80;99.90;;;;;;5015527;28;19906;-77
2022/08/15 08:35:31;;;;;;;;;;;25.90;99.90;;;;;;5017460;28;19996;-76
2022/08/15 08:38:02;;;;;;;;;;;26.70;99.90;;;;;;5015657;28;19971;-75
2022/08/15 08:43:41;;;;;;;;;;;28.00;99.90;;;;;;5008196;28;19911;-78
2022/08/15 08:46:13;;;;;;;;;;;27.20;99.90;;;;;;5015539;28;19906;-78
2022/08/15 08:48:38;;;;;;;;;;;27.30;99.90;;;;;;5016902;28;19909;-79
2022/08/15 08:51:14;;;;;;;;;;;28.40;99.80;;;;;;5015227;28;19910;-76
2022/08/15 08:53:49;;;;;;;;;;;28.00;99.50;;;;;;5015131;28;19933;-75
2022/08/15 08:56:20;;;;;;;;;;;27.90;99.20;;;;;;5016299;28;20283;-76
2022/08/15 08:58:51;;;;;;;;;;;27.30;99.90;;;;;;5015080;28;20373;-76
2022/08/15 09:01:25;;;;;;;;;;;27.50;99.40;;;;;;5015393;28;19956;-78
2022/08/15 09:03:53;;;;;;;;;;;27.40;98.80;;;;;;5015204;28;19917;-77
2022/08/15 09:06:22;;;;;;;;;;;27.20;98.70;;;;;;5014598;28;20365;-77
2022/08/15 09:08:51;;;;;;;;;;;27.40;98.90;;;;;;5015203;28;20352;-79
2022/08/15 09:11:40;;;;;;;;;;;27.20;98.90;;;;;;5014701;28;19909;-78
2022/08/15 09:14:15;;;;;;;;;;;27.20;98.40;;;;;;5011880;28;19913;-78
2022/08/15 09:16:41;;;;;;;;;;;27.00;98.70;;;;;;5013813;28;19909;-79
2022/08/15 09:19:07;;;;;;;;;;;27.20;98.50;;;;;;5015361;28;19905;-76
2022/08/15 09:21:33;;;;;;;;;;;27.10;98.70;;;;;;5015009;28;19996;-78
2022/08/15 09:23:59;;;;;;;;;;;27.10;98.60;;;;;;5014460;28;19905;-79
2022/08/15 09:26:31;;;;;;;;;;;27.90;98.20;;;;;;5014207;28;19905;-79
2022/08/15 09:29:04;;;;;;;;;;;28.30;97.60;;;;;;5014325;28;20376;-76
2022/08/15 09:31:32;;;;;;;;;;;28.50;97.10;;;;;;5014567;28;20356;-78
2022/08/15 09:34:05;;;;;;;;;;;28.50;97.10;;;;;;5014541;28;19906;-78
2022/08/15 09:36:54;;;;;;;;;;;28.10;97.30;;;;;;5017904;28;19906;-78
2022/08/15 09:39:20;;;;;;;;;;;28.60;97.00;;;;;;5011472;28;19933;-77
2022/08/15 09:41:45;;;;;;;;;;;27.80;97.40;;;;;;5010832;28;19910;-77
2022/08/15 09:44:26;;;;;;;;;;;27.00;98.80;;;;;;5012668;28;19952;-75
2022/08/15 09:46:51;;;;;;;;;;;25.60;99.90;;;;;;5016063;28;20387;-76
2022/08/15 09:49:20;;;;;;;;;;;25.40;99.90;;;;;;5014339;28;19906;-78
2022/08/15 09:52:00;;;;;;;;;;;25.70;99.90;;;;;;5012637;28;20304;-78
2022/08/15 09:54:28;;;;;;;;;;;25.90;99.90;;;;;;5012823;28;20496;-76
2022/08/15 09:57:12;;;;;;;;;;;24.40;99.90;;;;;;5014157;28;19905;-76
2022/08/15 09:59:38;;;;;;;;;;;23.50;99.90;;;;;;5014441;28;20467;-75
2022/08/15 10:02:32;;;;;;;;;;;23.40;99.90;;;;;;5013995;28;19951;-78
2022/08/15 10:04:57;;;;;;;;;;;23.60;99.90;;;;;;5009899;28;20370;-75
2022/08/15 10:07:32;;;;;;;;;;;23.80;99.90;;;;;;5017361;28;19951;-78
2022/08/15 10:10:00;;;;;;;;;;;23.80;99.90;;;;;;5013343;28;20279;-76
2022/08/15 10:12:26;;;;;;;;;;;23.90;99.90;;;;;;5016932;28;20372;-76
2022/08/15 10:14:51;;;;;;;;;;;24.00;99.90;;;;;;5014196;28;19916;-78
2022/08/15 10:17:23;;;;;;;;;;;23.90;99.90;;;;;;5012177;28;19906;-79
2022/08/15 10:19:49;;;;;;;;;;;24.30;99.90;;;;;;5013209;28;20372;-75
2022/08/15 10:22:25;;;;;;;;;;;24.40;99.90;;;;;;5013522;28;19912;-75
2022/08/15 10:25:09;;;;;;;;;;;24.70;99.90;;;;;;5013815;28;19928;-75
2022/08/15 10:27:55;;;;;;;;;;;24.40;99.90;;;;;;5013268;28;19910;-75
2022/08/15 10:30:23;;;;;;;;;;;24.60;99.90;;;;;;5013362;28;19909;-75
2022/08/15 10:32:50;;;;;;;;;;;24.40;99.90;;;;;;5018214;28;19917;-75
2022/08/15 10:35:36;;;;;;;;;;;23.90;99.90;;;;;;5015573;28;19905;-75
2022/08/15 10:38:04;;;;;;;;;;;23.60;99.90;;;;;;5012940;28;20043;-78
2022/08/15 10:40:29;;;;;;;;;;;23.60;99.90;;;;;;5012294;28;19959;-78
2022/08/15 10:43:06;;;;;;;;;;;23.50;99.90;;;;;;5004225;28;20016;-78
2022/08/15 10:45:37;;;;;;;;;;;23.40;99.90;;;;;;5013367;28;19955;-78
2022/08/15 10:48:02;;;;;;;;;;;24.20;99.90;;;;;;5015076;28;19905;-78
2022/08/15 10:50:41;;;;;;;;;;;25.80;99.90;;;;;;5013296;28;19909;-77
2022/08/15 10:53:15;;;;;;;;;;;26.30;99.90;;;;;;5013310;28;19917;-78
2022/08/15 10:55:40;;;;;;;;;;;26.30;99.50;;;;;;5013457;28;19905;-77
2022/08/15 10:58:18;;;;;;;;;;;26.20;99.40;;;;;;5013024;28;20000;-77
2022/08/15 11:00:51;;;;;;;;;;;25.40;99.90;;;;;;5013563;28;19952;-78
2022/08/15 11:03:24;;;;;;;;;;;26.40;99.70;;;;;;5012036;28;19919;-79
2022/08/15 11:05:58;;;;;;;;;;;27.80;98.40;;;;;;5013280;28;19913;-79
2022/08/15 11:08:24;;;;;;;;;;;28.10;97.30;;;;;;5013181;28;19911;-76
2022/08/15 11:10:50;;;;;;;;;;;28.60;96.90;;;;;;5016205;28;20284;-78
2022/08/15 11:13:20;;;;;;;;;;;28.80;96.60;;;;;;5012562;28;19912;-79
2022/08/15 11:15:46;;;;;;;;;;;28.40;96.60;;;;;;5013350;28;20369;-77
2022/08/15 11:18:12;;;;;;;;;;;27.40;97.40;;;;;;5010869;28;19940;-78
2022/08/15 11:20:52;;;;;;;;;;;26.30;99.00;;;;;;5013866;28;19905;-78
2022/08/15 11:23:36;;;;;;;;;;;26.20;99.00;;;;;;5012978;28;19952;-78
2022/08/15 11:26:05;;;;;;;;;;;26.00;99.40;;;;;;5013124;28;19964;-78
2022/08/15 11:28:30;;;;;;;;;;;26.40;99.40;;;;;;5012922;28;19912;-76
2022/08/15 11:30:59;;;;;;;;;;;26.20;99.50;;;;;;5016839;28;19909;-78
2022/08/15 11:33:38;;;;;;;;;;;25.80;99.90;;;;;;5016913;28;19955;-78
2022/08/15 11:36:23;;;;;;;;;;;25.60;99.90;;;;;;5018500;28;19905;-78
2022/08/15 11:38:51;;;;;;;;;;;25.00;99.90;;;;;;5015535;28;20279;-77
2022/08/15 11:41:21;;;;;;;;;;;25.30;99.90;;;;;;5012511;28;19910;-76
2022/08/15 11:43:47;;;;;;;;;;;25.00;99.90;;;;;;5009623;28;20323;-76
2022/08/15 11:46:12;;;;;;;;;;;24.60;99.90;;;;;;5016519;28;19910;-78
2022/08/15 11:48:39;;;;;;;;;;;24.50;99.90;;;;;;5018936;28;20055;-78
2022/08/15 11:51:08;;;;;;;;;;;24.20;99.90;;;;;;5014761;28;19960;-79
2022/08/15 11:53:40;;;;;;;;;;;24.00;99.90;;;;;;5016286;28;19937;-78
2022/08/15 11:56:05;;;;;;;;;;;23.90;99.90;;;;;;5026170;28;19905;-78
2022/08/15 11:58:33;;;;;;;;;;;23.70;99.90;;;;;;5024969;28;19920;-79
2022/08/15 12:01:17;;;;;;;;;;;24.30;99.90;;;;;;5016602;28;19928;-76
2022/08/15 12:03:56;;;;;;;;;;;24.60;99.90;;;;;;5016138;28;19905;-77
2022/08/15 12:06:42;;;;;;;;;;;24.20;99.90;;;;;;5018369;28;19910;-76
2022/08/15 12:09:28;;;;;;;;;;;23.70;99.90;;;;;;5015849;28;19912;-76
2022/08/15 12:11:53;;;;;;;;;;;23.30;99.90;;;;;;5015512;28;19909;-78
2022/08/15 12:14:23;;;;;;;;;;;23.10;99.90;;;;;;5026926;28;20386;-78
2022/08/15 12:16:50;;;;;;;;;;;22.90;99.90;;;;;;5013064;28;19906;-78
2022/08/15 12:19:22;;;;;;;;;;;22.90;99.90;;;;;;5016107;28;19913;-77
2022/08/15 12:21:49;;;;;;;;;;;22.80;99.90;;;;;;5015739;28;19965;-76
2022/08/15 12:24:21;;;;;;;;;;;22.80;99.90;;;;;;5015773;28;19905;-78
2022/08/15 12:26:46;;;;;;;;;;;23.10;99.90;;;;;;5015873;28;19905;-78
2022/08/15 12:29:12;;;;;;;;;;;23.00;99.90;;;;;;5017708;28;19905;-76
2022/08/15 12:31:38;;;;;;;;;;;23.30;99.90;;;;;;5015794;28;19967;-76
2022/08/15 12:34:04;;;;;;;;;;;23.20;99.90;;;;;;5015670;28;19905;-76
2022/08/15 12:36:30;;;;;;;;;;;23.10;99.90;;;;;;5017631;28;19955;-75
2022/08/15 12:38:56;;;;;;;;;;;23.40;99.90;;;;;;5015901;28;19905;-77
2022/08/15 12:41:21;;;;;;;;;;;23.60;99.90;;;;;;5010117;28;19925;-78
2022/08/15 12:43:48;;;;;;;;;;;23.80;99.90;;;;;;5009087;28;20377;-78
2022/08/15 12:46:13;;;;;;;;;;;24.00;99.90;;;;;;5015455;28;19906;-78
2022/08/15 12:48:40;;;;;;;;;;;24.40;99.90;;;;;;5016334;28;20380;-79
2022/08/15 12:51:09;;;;;;;;;;;24.20;99.90;;;;;;5015394;28;19917;-79
2022/08/15 12:53:38;;;;;;;;;;;24.20;99.90;;;;;;5015336;28;20418;-78
2022/08/15 12:56:04;;;;;;;;;;;24.50;99.90;;;;;;5015174;28;20349;-78
2022/08/15 12:58:30;;;;;;;;;;;25.00;99.90;;;;;;5014928;28;19952;-76
2022/08/15 13:00:57;;;;;;;;;;;25.40;99.90;;;;;;5014067;28;19909;-79
2022/08/15 13:03:28;;;;;;;;;;;25.30;99.90;;;;;;5017744;28;19905;-79
2022/08/15 13:06:14;;;;;;;;;;;25.00;99.90;;;;;;5015096;28;20365;-76
2022/08/15 13:08:39;;;;;;;;;;;25.00;99.90;;;;;;5017051;28;19905;-78
2022/08/15 13:11:05;;;;;;;;;;;25.10;99.90;;;;;;5017001;28;19917;-76
2022/08/15 13:13:30;;;;;;;;;;;25.80;99.90;;;;;;5014602;28;20355;-77
2022/08/15 13:15:56;;;;;;;;;;;26.10;99.90;;;;;;5014870;28;19905;-78
2022/08/15 13:18:23;;;;;;;;;;;25.70;99.90;;;;;;5013394;28;19910;-78
2022/08/15 13:23:40;;;;;;;;;;;24.90;99.90;;;;;;5004273;28;19913;-78
2022/08/15 13:26:13;;;;;;;;;;;24.60;99.90;;;;;;5014729;28;19905;-77
2022/08/15 13:28:44;;;;;;;;;;;24.90;99.90;;;;;;5014459;28;19935;-78
2022/08/15 13:31:11;;;;;;;;;;;24.80;99.90;;;;;;5014469;28;19932;-77
2022/08/15 13:33:37;;;;;;;;;;;24.90;99.90;;;;;;5014596;28;19905;-78
2022/08/15 13:36:04;;;;;;;;;;;25.00;99.90;;;;;;5016336;28;20281;-80
2022/08/15 13:38:30;;;;;;;;;;;24.80;99.90;;;;;;5014818;28;19909;-76
2022/08/15 13:40:55;;;;;;;;;;;24.20;99.90;;;;;;5012740;28;20304;-77
2022/08/15 13:43:21;;;;;;;;;;;24.20;99.90;;;;;;5006004;28;19906;-77
2022/08/15 13:45:47;;;;;;;;;;;24.10;99.90;;;;;;5014134;28;19905;-78
2022/08/15 13:48:20;;;;;;;;;;;24.10;99.90;;;;;;5016904;28;19961;-78
2022/08/15 13:50:46;;;;;;;;;;;24.30;99.90;;;;;;5024749;28;19916;-78
2022/08/15 13:53:12;;;;;;;;;;;24.30;99.90;;;;;;5012876;28;19921;-77
2022/08/15 13:55:38;;;;;;;;;;;24.30;99.90;;;;;;5014157;28;19906;-78
2022/08/15 13:58:04;;;;;;;;;;;24.40;99.90;;;;;;5013704;28;20368;-79
2022/08/15 14:00:31;;;;;;;;;;;24.40;99.90;;;;;;5014034;28;19960;-79
2022/08/15 14:02:57;;;;;;;;;;;24.70;99.90;;;;;;5014379;28;20356;-79
2022/08/15 14:05:23;;;;;;;;;;;24.80;99.90;;;;;;5012843;28;19906;-78
2022/08/15 14:07:49;;;;;;;;;;;24.60;99.90;;;;;;5014423;28;20356;-78
2022/08/15 14:10:16;;;;;;;;;;;24.80;99.90;;;;;;5013774;28;19909;-78
2022/08/15 14:12:43;;;;;;;;;;;24.40;99.90;;;;;;5013717;28;19919;-78
2022/08/15 14:15:11;;;;;;;;;;;24.20;99.90;;;;;;5013855;28;20283;-78
2022/08/15 14:17:37;;;;;;;;;;;23.90;99.90;;;;;;5013850;28;19979;-75
2022/08/15 14:20:05;;;;;;;;;;;24.40;99.90;;;;;;5018026;28;20376;-78
2022/08/15 14:22:31;;;;;;;;;;;24.70;99.90;;;;;;5013259;28;20386;-78
2022/08/15 14:24:58;;;;;;;;;;;25.00;99.90;;;;;;5013725;28;19996;-78
2022/08/15 14:27:25;;;;;;;;;;;25.80;99.90;;;;;;5013551;28;20001;-78
2022/08/15 14:29:53;;;;;;;;;;;25.50;99.40;;;;;;5013328;28;19906;-76
2022/08/15 14:32:19;;;;;;;;;;;24.90;99.90;;;;;;5013703;28;19905;-78
2022/08/15 14:34:45;;;;;;;;;;;25.60;99.80;;;;;;5015102;28;19905;-79
2022/08/15 14:37:13;;;;;;;;;;;27.00;98.50;;;;;;5013845;28;20352;-79
2022/08/15 14:39:39;;;;;;;;;;;26.40;98.40;;;;;;5013974;28;20056;-78